Terminal Aerodrome Forecast
Issued by NWS

Home | Current Version | Previous Version | Graphics & Text | Print | Product List | Glossary On
Versions: 1 2 3 4 5 6 7 8 9 10 11 12 13 14 15 16 17
000
FTUS43 KGRB 261100
TAFMTW
TAF
KMTW 261130Z 2612/2712 23004KT 6SM BR SCT015 BKN080
      TEMPO 2614/2618 SCT009 BKN018
     FM261800 25007KT P6SM SCT020 BKN035
     FM262100 26005KT P6SM SCT040 SCT200
     FM270400 23005KT P6SM SCT050 BKN100=

USA.gov is the U.S. government's official web portal to all federal, state and local government web resources and services.